»·PEaware :: MET4104 KRNO-KPDX

MET4104 :: KRNO-KPDX

FLIGHT INFORMATION

Flight Status: Arrived
Operator:
MetroAir (website)
More flights by this operator :: More flights under this callsign
Pilot: Colin L. (27704)
Aircraft: EMBRAER ERJ-145
(E145)
More flights by this aircraft type
Origin: KRNO Reno/Tahoe Intl
United States
Destination: KPDX Portland Intl
United States
More flights between these airports :: More routes between these airports
Route: RENO9 WNDEL SOERN TMBRS2
File this flight plan on PilotEdge
Remarks: RMK / SIMBRIEF
Altitude:
(Current/Filed)
34,000ft
Speed:
(Current/Filed)
465kts
Departed: 28-Jun-20 03:45 PM
Arrived: 28-Jun-20 05:00 PM
Distance/Time
Traveled:
386nm/1:15
Distance/Time
To Go:
Arrived

Flight Plot

Page will automatically refresh every two minutes.


Map Options




Map Legend


Flown Route
Filed Route
Departure Airport
Arrival Airport
Navaid (VOR, NDB)
Fix

Horizontal Profiles

Position Reports

Time Latitude Longitude Heading Altitude Ground
Speed
28-Jun-20 15:21 39.501384 -119.764909 89 4421ft 0kts
28-Jun-20 15:22 39.501384 -119.764909 89 4421ft 0kts
28-Jun-20 15:23 39.501384 -119.764909 89 4421ft 0kts
28-Jun-20 15:24 39.501384 -119.764909 89 4421ft 0kts
28-Jun-20 15:25 39.501384 -119.764909 89 4421ft 0kts
28-Jun-20 15:26 39.501384 -119.764909 89 4421ft 0kts
28-Jun-20 15:27 39.501384 -119.764909 89 4421ft 0kts
28-Jun-20 15:28 39.501384 -119.764909 89 4421ft 0kts
28-Jun-20 15:29 39.501384 -119.764909 89 4421ft 0kts
28-Jun-20 15:30 39.501384 -119.764909 89 4421ft 0kts
28-Jun-20 15:32 39.501384 -119.764909 89 4421ft 0kts
28-Jun-20 15:33 39.501384 -119.764909 89 4421ft 0kts
28-Jun-20 15:34 39.501384 -119.764909 89 4421ft 0kts
28-Jun-20 15:35 39.501273 -119.764586 142 4421ft 2kts
28-Jun-20 15:36 39.500924 -119.764723 259 4421ft 0kts
28-Jun-20 15:37 39.500920 -119.764750 259 4421ft 0kts
28-Jun-20 15:38 39.500919 -119.764761 259 4421ft 0kts
28-Jun-20 15:39 39.500919 -119.764761 259 4421ft 0kts
28-Jun-20 15:40 39.500919 -119.764761 259 4421ft 0kts
28-Jun-20 15:41 39.500904 -119.764863 259 4421ft 3kts
28-Jun-20 15:42 39.498470 -119.765729 181 4421ft 15kts
28-Jun-20 15:43 39.497360 -119.761184 88 4421ft 15kts
28-Jun-20 15:44 39.497209 -119.757551 138 4421ft 0kts
28-Jun-20 15:45 39.496255 -119.761414 270 4421ft 67kts
28-Jun-20 15:46 39.496098 -119.812419 270 4848ft 188kts
28-Jun-20 15:47 39.530228 -119.853279 348 6883ft 215kts
28-Jun-20 15:48 39.593515 -119.874559 332 8050ft 225kts
28-Jun-20 15:48 39.633602 -119.896385 331 9995ft 178kts
28-Jun-20 15:50 39.695233 -119.930079 332 13070ft 242kts
28-Jun-20 15:51 39.765467 -119.968523 332 15708ft 311kts
28-Jun-20 15:51 39.837865 -120.008221 332 17869ft 358kts
28-Jun-20 15:53 39.945463 -120.067406 331 20779ft 362kts
28-Jun-20 15:53 40.022381 -120.109836 330 22841ft 360kts
28-Jun-20 15:54 40.113406 -120.160209 329 25309ft 351kts
28-Jun-20 15:55 40.201890 -120.209365 328 27795ft 354kts
28-Jun-20 15:56 40.294901 -120.261116 327 30308ft 373kts
28-Jun-20 15:57 40.391030 -120.314762 326 32786ft 377kts
28-Jun-20 15:58 40.486138 -120.368465 327 33792ft 385kts
28-Jun-20 15:59 40.586186 -120.424882 326 33770ft 381kts
28-Jun-20 16:00 40.681179 -120.478844 326 33779ft 370kts
28-Jun-20 16:01 40.776583 -120.533120 326 33779ft 381kts
28-Jun-20 16:02 40.875019 -120.589263 326 33807ft 387kts
28-Jun-20 16:03 40.973420 -120.645638 326 33857ft 386kts
28-Jun-20 16:04 41.072479 -120.702552 327 33874ft 390kts
28-Jun-20 16:05 41.171861 -120.759815 327 33879ft 393kts
28-Jun-20 16:06 41.272518 -120.818021 327 33876ft 394kts
28-Jun-20 16:07 41.372665 -120.876117 327 33874ft 392kts
28-Jun-20 16:08 41.472058 -120.933990 327 33873ft 390kts
28-Jun-20 16:09 41.571125 -120.991883 327 33873ft 388kts
28-Jun-20 16:10 41.668858 -121.049591 328 33879ft 384kts
28-Jun-20 16:11 41.765216 -121.105812 328 33895ft 371kts
28-Jun-20 16:12 41.857682 -121.160366 328 33907ft 357kts
28-Jun-20 16:13 41.946933 -121.213195 329 33916ft 348kts
28-Jun-20 16:14 42.037167 -121.266774 329 33918ft 363kts
28-Jun-20 16:15 42.130321 -121.322226 329 33928ft 370kts
28-Jun-20 16:16 42.223901 -121.378121 329 33924ft 368kts
28-Jun-20 16:17 42.317246 -121.434065 329 33922ft 366kts
28-Jun-20 16:18 42.409615 -121.489620 329 33918ft 362kts
28-Jun-20 16:19 42.500654 -121.544510 329 33916ft 356kts
28-Jun-20 16:20 42.591002 -121.599222 329 33916ft 358kts
28-Jun-20 16:21 42.682368 -121.654691 328 33922ft 363kts
28-Jun-20 16:22 42.775023 -121.711110 329 33928ft 368kts
28-Jun-20 16:23 42.868957 -121.768511 329 33924ft 370kts
28-Jun-20 16:24 42.960895 -121.825071 332 33914ft 360kts
28-Jun-20 16:25 43.051066 -121.887647 331 33919ft 372kts
28-Jun-20 16:26 43.142913 -121.958619 330 33943ft 387kts
28-Jun-20 16:27 43.238317 -122.032780 331 33960ft 399kts
28-Jun-20 16:28 43.338888 -122.091370 0 33986ft 407kts
28-Jun-20 16:29 43.448213 -122.104478 331 33979ft 402kts
28-Jun-20 16:30 43.552535 -122.162525 338 33917ft 406kts
28-Jun-20 16:31 43.658354 -122.217804 338 33934ft 407kts
28-Jun-20 16:32 43.765267 -122.264813 342 33931ft 381kts
28-Jun-20 16:33 43.862158 -122.303848 342 32067ft 352kts
28-Jun-20 16:34 43.953469 -122.340736 342 30004ft 335kts
28-Jun-20 16:35 44.040816 -122.376117 342 27949ft 324kts
28-Jun-20 16:36 44.122664 -122.422652 336 25915ft 316kts
28-Jun-20 16:37 44.202306 -122.471850 335 23924ft 311kts
28-Jun-20 16:38 44.280814 -122.520562 335 21932ft 309kts
28-Jun-20 16:39 44.358902 -122.569150 335 19932ft 307kts
28-Jun-20 16:40 44.436521 -122.617588 335 18053ft 302kts
28-Jun-20 16:41 44.515222 -122.666866 335 18019ft 329kts
28-Jun-20 16:42 44.605469 -122.707258 0 17975ft 361kts
28-Jun-20 16:43 44.707585 -122.697847 1 17209ft 369kts
28-Jun-20 16:44 44.808217 -122.687714 1 15719ft 349kts
28-Jun-20 16:45 44.902175 -122.678250 1 15006ft 326kts
28-Jun-20 16:46 44.989133 -122.669510 1 14702ft 303kts
28-Jun-20 16:47 45.068458 -122.661495 3 13145ft 273kts
28-Jun-20 16:48 45.142066 -122.653945 4 11621ft 259kts
28-Jun-20 16:49 45.212516 -122.646749 3 10129ft 252kts
28-Jun-20 16:50 45.276244 -122.618640 29 8355ft 242kts
28-Jun-20 16:51 45.332514 -122.568244 30 6360ft 238kts
28-Jun-20 16:52 45.387623 -122.518647 30 5005ft 229kts
28-Jun-20 16:53 45.437161 -122.463736 47 4337ft 240kts
28-Jun-20 16:54 45.492564 -122.461147 359 3412ft 169kts
28-Jun-20 16:55 45.534338 -122.468616 311 1986ft 131kts
28-Jun-20 16:56 45.552115 -122.509202 300 1002ft 132kts
28-Jun-20 16:57 45.566668 -122.548078 300 454ft 118kts
28-Jun-20 16:58 45.580586 -122.583851 299 36ft 115kts
28-Jun-20 16:59 45.586807 -122.597217 17 19ft 0kts
28-Jun-20 17:00 45.587205 -122.596906 31 20ft 10kts
28-Jun-20 17:01 45.588468 -122.596327 28 23ft 0kts

Navigation Log

Ident Type
Flight plan parsing failed, navigation log unavailable